sensor_id;sensor_type;location;lat;lon;timestamp;pressure;altitude;pressure_sealevel;temperature;humidity
9257;BME280;4665;51.368;6.782;2023-02-10T00:01:29;103232.72;;;2.99;100.00
9257;BME280;4665;51.368;6.782;2023-02-10T00:03:56;103234.47;;;3.00;100.00
9257;BME280;4665;51.368;6.782;2023-02-10T00:06:23;103246.72;;;3.01;100.00
9257;BME280;4665;51.368;6.782;2023-02-10T00:08:50;103244.09;;;3.01;100.00
9257;BME280;4665;51.368;6.782;2023-02-10T00:11:17;103239.75;;;3.00;100.00
9257;BME280;4665;51.368;6.782;2023-02-10T00:13:43;103241.44;;;3.01;100.00
9257;BME280;4665;51.368;6.782;2023-02-10T00:16:12;103254.50;;;3.04;100.00
9257;BME280;4665;51.368;6.782;2023-02-10T00:18:38;103251.00;;;3.05;100.00
9257;BME280;4665;51.368;6.782;2023-02-10T00:21:13;103258.91;;;3.05;100.00
9257;BME280;4665;51.368;6.782;2023-02-10T00:23:39;103250.06;;;3.06;100.00
9257;BME280;4665;51.368;6.782;2023-02-10T00:26:06;103249.22;;;3.05;100.00
9257;BME280;4665;51.368;6.782;2023-02-10T00:28:34;103247.41;;;3.07;100.00
9257;BME280;4665;51.368;6.782;2023-02-10T00:31:05;103253.41;;;3.11;100.00
9257;BME280;4665;51.368;6.782;2023-02-10T00:33:30;103255.16;;;3.12;100.00
9257;BME280;4665;51.368;6.782;2023-02-10T00:35:55;103262.94;;;3.16;100.00
9257;BME280;4665;51.368;6.782;2023-02-10T00:38:21;103268.19;;;3.16;100.00
9257;BME280;4665;51.368;6.782;2023-02-10T00:40:46;103253.41;;;3.11;100.00
9257;BME280;4665;51.368;6.782;2023-02-10T00:43:12;103264.75;;;3.14;100.00
9257;BME280;4665;51.368;6.782;2023-02-10T00:45:37;103259.47;;;3.14;100.00
9257;BME280;4665;51.368;6.782;2023-02-10T00:48:03;103261.97;;;3.19;100.00
9257;BME280;4665;51.368;6.782;2023-02-10T00:50:28;103261.97;;;3.19;100.00
9257;BME280;4665;51.368;6.782;2023-02-10T00:52:53;103256.72;;;3.19;100.00
9257;BME280;4665;51.368;6.782;2023-02-10T00:55:19;103258.41;;;3.20;100.00
9257;BME280;4665;51.368;6.782;2023-02-10T00:57:44;103261.13;;;3.19;100.00
9257;BME280;4665;51.368;6.782;2023-02-10T01:00:10;103257.63;;;3.18;100.00
9257;BME280;4665;51.368;6.782;2023-02-10T01:02:36;103256.81;;;3.16;100.00
9257;BME280;4665;51.368;6.782;2023-02-10T01:05:01;103262.91;;;3.18;100.00
9257;BME280;4665;51.368;6.782;2023-02-10T01:07:28;103267.28;;;3.17;100.00
9257;BME280;4665;51.368;6.782;2023-02-10T01:09:55;103257.91;;;3.09;100.00
9257;BME280;4665;51.368;6.782;2023-02-10T01:12:20;103277.91;;;3.14;100.00
9257;BME280;4665;51.368;6.782;2023-02-10T01:14:45;103277.88;;;3.16;100.00
9257;BME280;4665;51.368;6.782;2023-02-10T01:17:11;103273.56;;;3.13;100.00
9257;BME280;4665;51.368;6.782;2023-02-10T01:19:36;103263.06;;;3.12;100.00
9257;BME280;4665;51.368;6.782;2023-02-10T01:22:02;103271.94;;;3.09;100.00
9257;BME280;4665;51.368;6.782;2023-02-10T01:24:27;103275.41;;;3.10;100.00
9257;BME280;4665;51.368;6.782;2023-02-10T01:26:53;103283.34;;;3.08;100.00
9257;BME280;4665;51.368;6.782;2023-02-10T01:29:18;103275.53;;;3.07;100.00
9257;BME280;4665;51.368;6.782;2023-02-10T01:31:44;103286.13;;;3.04;100.00
9257;BME280;4665;51.368;6.782;2023-02-10T01:34:09;103279.19;;;3.01;100.00
9257;BME280;4665;51.368;6.782;2023-02-10T01:36:35;103293.19;;;3.02;100.00
9257;BME280;4665;51.368;6.782;2023-02-10T01:39:01;103293.31;;;2.99;100.00
9257;BME280;4665;51.368;6.782;2023-02-10T01:41:26;103287.22;;;2.97;100.00
9257;BME280;4665;51.368;6.782;2023-02-10T01:46:52;103302.94;;;3.00;100.00
9257;BME280;4665;51.368;6.782;2023-02-10T01:49:21;103296.78;;;2.99;100.00
9257;BME280;4665;51.368;6.782;2023-02-10T01:52:22;103297.69;;;3.00;100.00
9257;BME280;4665;51.368;6.782;2023-02-10T01:55:10;103307.28;;;3.01;100.00
9257;BME280;4665;51.368;6.782;2023-02-10T01:57:40;103311.72;;;3.00;100.00
9257;BME280;4665;51.368;6.782;2023-02-10T02:00:08;103304.81;;;2.94;100.00
9257;BME280;4665;51.368;6.782;2023-02-10T02:02:33;103313.56;;;2.97;100.00
9257;BME280;4665;51.368;6.782;2023-02-10T02:05:02;103318.81;;;2.97;100.00
9257;BME280;4665;51.368;6.782;2023-02-10T02:07:34;103312.69;;;2.96;100.00
9257;BME280;4665;51.368;6.782;2023-02-10T02:10:03;103298.91;;;2.88;100.00
9257;BME280;4665;51.368;6.782;2023-02-10T02:15:17;103318.00;;;2.94;100.00
9257;BME280;4665;51.368;6.782;2023-02-10T02:17:57;103325.09;;;2.92;100.00
9257;BME280;4665;51.368;6.782;2023-02-10T02:37:04;103315.81;;;2.79;100.00
9257;BME280;4665;51.368;6.782;2023-02-10T02:39:32;103331.53;;;2.81;100.00
9257;BME280;4665;51.368;6.782;2023-02-10T02:44:35;103321.22;;;2.73;100.00
9257;BME280;4665;51.368;6.782;2023-02-10T02:47:56;103319.44;;;2.73;100.00
9257;BME280;4665;51.368;6.782;2023-02-10T02:50:00;103332.72;;;2.70;100.00
9257;BME280;4665;51.368;6.782;2023-02-10T02:58:20;103329.47;;;2.61;100.00
9257;BME280;4665;51.368;6.782;2023-02-10T03:00:47;103326.88;;;2.59;100.00
9257;BME280;4665;51.368;6.782;2023-02-10T03:03:14;103321.72;;;2.55;100.00
9257;BME280;4665;51.368;6.782;2023-02-10T03:05:40;103327.78;;;2.58;100.00
9257;BME280;4665;51.368;6.782;2023-02-10T03:08:06;103323.41;;;2.57;100.00
9257;BME280;4665;51.368;6.782;2023-02-10T03:10:31;103319.06;;;2.56;100.00
9257;BME280;4665;51.368;6.782;2023-02-10T03:12:57;103307.78;;;2.51;100.00
9257;BME280;4665;51.368;6.782;2023-02-10T03:15:22;103299.91;;;2.51;100.00
9257;BME280;4665;51.368;6.782;2023-02-10T03:17:48;103294.63;;;2.51;100.00
9257;BME280;4665;51.368;6.782;2023-02-10T03:20:14;103288.59;;;2.46;100.00
9257;BME280;4665;51.368;6.782;2023-02-10T03:22:41;103299.13;;;2.46;100.00
9257;BME280;4665;51.368;6.782;2023-02-10T03:25:07;103300.09;;;2.43;100.00
9257;BME280;4665;51.368;6.782;2023-02-10T03:27:33;103299.31;;;2.40;100.00
9257;BME280;4665;51.368;6.782;2023-02-10T03:29:58;103298.53;;;2.36;100.00
9257;BME280;4665;51.368;6.782;2023-02-10T03:32:23;103289.78;;;2.34;100.00
9257;BME280;4665;51.368;6.782;2023-02-10T03:34:49;103289.97;;;2.28;100.00
9257;BME280;4665;51.368;6.782;2023-02-10T03:37:15;103301.38;;;2.27;100.00
9257;BME280;4665;51.368;6.782;2023-02-10T03:39:40;103296.22;;;2.24;100.00
9257;BME280;4665;51.368;6.782;2023-02-10T03:42:06;103304.19;;;2.21;100.00
9257;BME280;4665;51.368;6.782;2023-02-10T03:44:32;103303.38;;;2.19;100.00
9257;BME280;4665;51.368;6.782;2023-02-10T03:46:58;103317.34;;;2.21;100.00
9257;BME280;4665;51.368;6.782;2023-02-10T03:49:23;103306.84;;;2.19;100.00
9257;BME280;4665;51.368;6.782;2023-02-10T03:51:49;103320.03;;;2.18;100.00
9257;BME280;4665;51.368;6.782;2023-02-10T03:54:15;103317.50;;;2.15;100.00
9257;BME280;4665;51.368;6.782;2023-02-10T03:56:40;103322.84;;;2.12;100.00
9257;BME280;4665;51.368;6.782;2023-02-10T03:59:05;103333.41;;;2.08;100.00
9257;BME280;4665;51.368;6.782;2023-02-10T04:01:31;103329.16;;;2.04;100.00
9257;BME280;4665;51.368;6.782;2023-02-10T04:03:57;103327.50;;;1.99;100.00
9257;BME280;4665;51.368;6.782;2023-02-10T04:06:22;103325.00;;;1.94;100.00
9257;BME280;4665;51.368;6.782;2023-02-10T04:08:48;103321.59;;;1.91;100.00
9257;BME280;4665;51.368;6.782;2023-02-10T04:11:14;103332.13;;;1.89;100.00
9257;BME280;4665;51.368;6.782;2023-02-10T04:13:40;103330.44;;;1.86;100.00
9257;BME280;4665;51.368;6.782;2023-02-10T04:16:09;103314.78;;;1.82;100.00
9257;BME280;4665;51.368;6.782;2023-02-10T04:18:34;103328.75;;;1.84;100.00
9257;BME280;4665;51.368;6.782;2023-02-10T04:21:02;103327.84;;;1.85;100.00
9257;BME280;4665;51.368;6.782;2023-02-10T04:23:28;103327.81;;;1.86;100.00
9257;BME280;4665;51.368;6.782;2023-02-10T04:25:54;103340.97;;;1.86;100.00
9257;BME280;4665;51.368;6.782;2023-02-10T04:28:20;103324.38;;;1.83;100.00
9257;BME280;4665;51.368;6.782;2023-02-10T04:30:46;103328.75;;;1.84;100.00
9257;BME280;4665;51.368;6.782;2023-02-10T04:33:15;103334.84;;;1.86;100.00
9257;BME280;4665;51.368;6.782;2023-02-10T04:35:40;103334.00;;;1.84;100.00
9257;BME280;4665;51.368;6.782;2023-02-10T04:38:06;103337.59;;;1.81;100.00
9257;BME280;4665;51.368;6.782;2023-02-10T04:40:31;103340.16;;;1.83;100.00
9257;BME280;4665;51.368;6.782;2023-02-10T04:42:57;103339.41;;;1.78;100.00
9257;BME280;4665;51.368;6.782;2023-02-10T04:45:22;103339.47;;;1.75;100.00
9257;BME280;4665;51.368;6.782;2023-02-10T04:47:48;103343.81;;;1.77;100.00
9257;BME280;4665;51.368;6.782;2023-02-10T04:50:13;103347.31;;;1.76;100.00
9257;BME280;4665;51.368;6.782;2023-02-10T04:52:39;103347.28;;;1.78;100.00
9257;BME280;4665;51.368;6.782;2023-02-10T04:55:04;103348.19;;;1.77;100.00
9257;BME280;4665;51.368;6.782;2023-02-10T04:57:30;103339.41;;;1.78;100.00
9257;BME280;4665;51.368;6.782;2023-02-10T04:59:56;103344.63;;;1.79;100.00
9257;BME280;4665;51.368;6.782;2023-02-10T05:02:22;103335.00;;;1.78;100.00
9257;BME280;4665;51.368;6.782;2023-02-10T05:04:47;103335.88;;;1.79;100.00
9257;BME280;4665;51.368;6.782;2023-02-10T05:07:12;103343.69;;;1.82;100.00
9257;BME280;4665;51.368;6.782;2023-02-10T05:09:38;103338.47;;;1.80;100.00
9257;BME280;4665;51.368;6.782;2023-02-10T05:12:03;103338.34;;;1.85;100.00
9257;BME280;4665;51.368;6.782;2023-02-10T05:14:29;103343.59;;;1.86;100.00
9257;BME280;4665;51.368;6.782;2023-02-10T05:16:55;103335.72;;;1.85;100.00
9257;BME280;4665;51.368;6.782;2023-02-10T05:19:21;103340.03;;;1.89;100.00
9257;BME280;4665;51.368;6.782;2023-02-10T05:21:47;103342.63;;;1.91;100.00
9257;BME280;4665;51.368;6.782;2023-02-10T05:24:12;103341.72;;;1.90;100.00
9257;BME280;4665;51.368;6.782;2023-02-10T05:26:38;103344.41;;;1.88;100.00
9257;BME280;4665;51.368;6.782;2023-02-10T05:29:03;103334.84;;;1.86;100.00
9257;BME280;4665;51.368;6.782;2023-02-10T05:31:29;103353.19;;;1.87;100.00
9257;BME280;4665;51.368;6.782;2023-02-10T05:33:54;103360.13;;;1.90;100.00
9257;BME280;4665;51.368;6.782;2023-02-10T05:36:20;103356.69;;;1.88;100.00
9257;BME280;4665;51.368;6.782;2023-02-10T05:38:46;103357.56;;;1.88;100.00
9257;BME280;4665;51.368;6.782;2023-02-10T05:41:31;103361.16;;;1.84;100.00
9257;BME280;4665;51.368;6.782;2023-02-10T05:43:56;103369.81;;;1.88;100.00
9257;BME280;4665;51.368;6.782;2023-02-10T05:46:22;103366.41;;;1.86;100.00
9257;BME280;4665;51.368;6.782;2023-02-10T05:48:47;103372.44;;;1.88;100.00
9257;BME280;4665;51.368;6.782;2023-02-10T05:51:13;103382.91;;;1.91;100.00
9257;BME280;4665;51.368;6.782;2023-02-10T05:53:38;103384.63;;;1.92;100.00
9257;BME280;4665;51.368;6.782;2023-02-10T05:56:04;103385.50;;;1.93;100.00
9257;BME280;4665;51.368;6.782;2023-02-10T05:58:29;103378.50;;;1.93;100.00
9257;BME280;4665;51.368;6.782;2023-02-10T06:01:00;103388.03;;;1.97;100.00
9257;BME280;4665;51.368;6.782;2023-02-10T06:03:26;103379.34;;;1.95;100.00
9257;BME280;4665;51.368;6.782;2023-02-10T06:05:51;103380.13;;;1.97;100.00
9257;BME280;4665;51.368;6.782;2023-02-10T06:08:17;103382.75;;;1.97;100.00
9257;BME280;4665;51.368;6.782;2023-02-10T06:10:43;103385.38;;;1.97;100.00
9257;BME280;4665;51.368;6.782;2023-02-10T06:13:08;103382.81;;;1.96;100.00
9257;BME280;4665;51.368;6.782;2023-02-10T06:15:33;103377.59;;;1.93;100.00
9257;BME280;4665;51.368;6.782;2023-02-10T06:17:59;103386.41;;;1.92;100.00
9257;BME280;4665;51.368;6.782;2023-02-10T06:20:24;103382.06;;;1.91;100.00
9257;BME280;4665;51.368;6.782;2023-02-10T06:22:50;103383.88;;;1.87;100.00
9257;BME280;4665;51.368;6.782;2023-02-10T06:25:16;103390.84;;;1.88;100.00
9257;BME280;4665;51.368;6.782;2023-02-10T06:27:41;103384.78;;;1.86;100.00
9257;BME280;4665;51.368;6.782;2023-02-10T06:30:07;103389.06;;;1.90;100.00
9257;BME280;4665;51.368;6.782;2023-02-10T06:32:33;103395.22;;;1.89;100.00
9257;BME280;4665;51.368;6.782;2023-02-10T06:34:58;103400.50;;;1.89;100.00
9257;BME280;4665;51.368;6.782;2023-02-10T06:37:24;103404.00;;;1.88;100.00
9257;BME280;4665;51.368;6.782;2023-02-10T06:39:49;103398.00;;;1.83;100.00
9257;BME280;4665;51.368;6.782;2023-02-10T06:42:15;103412.88;;;1.84;100.00
9257;BME280;4665;51.368;6.782;2023-02-10T06:44:41;103412.13;;;1.79;100.00
9257;BME280;4665;51.368;6.782;2023-02-10T06:47:06;103406.91;;;1.76;100.00
9257;BME280;4665;51.368;6.782;2023-02-10T06:49:32;103407.94;;;1.68;100.00
9257;BME280;4665;51.368;6.782;2023-02-10T06:51:57;103409.88;;;1.60;100.00
9257;BME280;4665;51.368;6.782;2023-02-10T06:54:23;103415.16;;;1.59;100.00
9257;BME280;4665;51.368;6.782;2023-02-10T06:56:48;103410.00;;;1.54;100.00
9257;BME280;4665;51.368;6.782;2023-02-10T06:59:13;103401.25;;;1.54;100.00
9257;BME280;4665;51.368;6.782;2023-02-10T07:01:39;103393.47;;;1.49;100.00
9257;BME280;4665;51.368;6.782;2023-02-10T07:04:04;103389.16;;;1.46;100.00
9257;BME280;4665;51.368;6.782;2023-02-10T07:06:30;103397.06;;;1.45;100.00
9257;BME280;4665;51.368;6.782;2023-02-10T07:08:55;103379.63;;;1.41;100.00
9257;BME280;4665;51.368;6.782;2023-02-10T07:11:20;103383.06;;;1.44;100.00
9257;BME280;4665;51.368;6.782;2023-02-10T07:13:46;103384.94;;;1.39;100.00
9257;BME280;4665;51.368;6.782;2023-02-10T07:16:11;103384.94;;;1.39;100.00
9257;BME280;4665;51.368;6.782;2023-02-10T07:18:40;103382.34;;;1.36;100.00
9257;BME280;4665;51.368;6.782;2023-02-10T07:21:06;103395.47;;;1.38;100.00
9257;BME280;4665;51.368;6.782;2023-02-10T07:23:31;103395.47;;;1.38;100.00
9257;BME280;4665;51.368;6.782;2023-02-10T07:25:57;103398.09;;;1.38;100.00
9257;BME280;4665;51.368;6.782;2023-02-10T07:28:22;103391.97;;;1.37;100.00
9257;BME280;4665;51.368;6.782;2023-02-10T07:30:48;103409.44;;;1.40;100.00
9257;BME280;4665;51.368;6.782;2023-02-10T07:33:13;103403.25;;;1.41;100.00
9257;BME280;4665;51.368;6.782;2023-02-10T07:35:38;103404.09;;;1.44;100.00
9257;BME280;4665;51.368;6.782;2023-02-10T07:38:04;103405.84;;;1.44;100.00
9257;BME280;4665;51.368;6.782;2023-02-10T07:40:29;103404.97;;;1.43;100.00
9257;BME280;4665;51.368;6.782;2023-02-10T07:42:56;103405.00;;;1.42;100.00
9257;BME280;4665;51.368;6.782;2023-02-10T07:45:21;103422.47;;;1.44;100.00
9257;BME280;4665;51.368;6.782;2023-02-10T07:47:47;103419.00;;;1.44;100.00
9257;BME280;4665;51.368;6.782;2023-02-10T07:50:13;103425.09;;;1.44;100.00
9257;BME280;4665;51.368;6.782;2023-02-10T07:52:38;103421.53;;;1.47;100.00
9257;BME280;4665;51.368;6.782;2023-02-10T07:55:07;103416.31;;;1.45;100.00
9257;BME280;4665;51.368;6.782;2023-02-10T07:57:32;103418.06;;;1.46;100.00
9257;BME280;4665;51.368;6.782;2023-02-10T07:59:58;103422.47;;;1.44;100.00
9257;BME280;4665;51.368;6.782;2023-02-10T08:02:23;103419.00;;;1.44;100.00
9257;BME280;4665;51.368;6.782;2023-02-10T08:04:49;103428.47;;;1.51;100.00
9257;BME280;4665;51.368;6.782;2023-02-10T08:07:14;103426.78;;;1.49;100.00
9257;BME280;4665;51.368;6.782;2023-02-10T08:09:39;103423.16;;;1.53;100.00
9257;BME280;4665;51.368;6.782;2023-02-10T08:12:06;103428.41;;;1.54;100.00
9257;BME280;4665;51.368;6.782;2023-02-10T08:14:31;103433.56;;;1.59;100.00
9257;BME280;4665;51.368;6.782;2023-02-10T08:16:57;103432.56;;;1.64;100.00
9257;BME280;4665;51.368;6.782;2023-02-10T08:19:22;103437.69;;;1.71;100.00
9257;BME280;4665;51.368;6.782;2023-02-10T08:21:48;103449.03;;;1.74;100.00
9257;BME280;4665;51.368;6.782;2023-02-10T08:24:13;103441.94;;;1.78;100.00
9257;BME280;4665;51.368;6.782;2023-02-10T08:26:39;103453.28;;;1.80;100.00
9257;BME280;4665;51.368;6.782;2023-02-10T08:29:05;103457.59;;;1.82;100.00
9257;BME280;4665;51.368;6.782;2023-02-10T08:31:31;103454.94;;;1.84;100.00
9257;BME280;4665;51.368;6.782;2023-02-10T08:33:57;103449.63;;;1.87;100.00
9257;BME280;4665;51.368;6.782;2023-02-10T08:36:22;103452.16;;;1.90;100.00
9257;BME280;4665;51.368;6.782;2023-02-10T08:38:49;103448.69;;;1.89;100.00
9257;BME280;4665;51.368;6.782;2023-02-10T08:41:15;103447.75;;;1.92;100.00
9257;BME280;4665;51.368;6.782;2023-02-10T08:43:42;103444.19;;;1.95;100.00
9257;BME280;4665;51.368;6.782;2023-02-10T08:46:07;103455.59;;;1.95;100.00
9257;BME280;4665;51.368;6.782;2023-02-10T08:48:33;103455.50;;;1.98;100.00
9257;BME280;4665;51.368;6.782;2023-02-10T08:50:59;103451.09;;;2.00;100.00
9257;BME280;4665;51.368;6.782;2023-02-10T08:53:25;103457.13;;;2.04;100.00
9257;BME280;4665;51.368;6.782;2023-02-10T08:56:20;103463.19;;;2.07;100.00
9257;BME280;4665;51.368;6.782;2023-02-10T08:58:46;103461.31;;;2.13;100.00
9257;BME280;4665;51.368;6.782;2023-02-10T09:01:14;103452.38;;;2.21;100.00
9257;BME280;4665;51.368;6.782;2023-02-10T09:03:40;103447.09;;;2.21;100.00
9257;BME280;4665;51.368;6.782;2023-02-10T09:06:15;103452.25;;;2.26;100.00
9257;BME280;4665;51.368;6.782;2023-02-10T09:08:41;103465.34;;;2.27;100.00
9257;BME280;4665;51.368;6.782;2023-02-10T09:11:08;103468.81;;;2.29;100.00
9257;BME280;4665;51.368;6.782;2023-02-10T09:13:33;103465.34;;;2.27;100.00
9257;BME280;4665;51.368;6.782;2023-02-10T09:15:59;103464.38;;;2.33;100.00
9257;BME280;4665;51.368;6.782;2023-02-10T09:18:24;103462.50;;;2.38;100.00
9257;BME280;4665;51.368;6.782;2023-02-10T09:20:50;103463.31;;;2.40;100.00
9257;BME280;4665;51.368;6.782;2023-02-10T09:23:15;103471.91;;;2.48;100.00
9257;BME280;4665;51.368;6.782;2023-02-10T09:25:40;103475.41;;;2.49;100.00
9257;BME280;4665;51.368;6.782;2023-02-10T09:28:06;103477.06;;;2.53;100.00
9257;BME280;4665;51.368;6.782;2023-02-10T09:30:32;103477.84;;;2.57;100.00
9257;BME280;4665;51.368;6.782;2023-02-10T09:32:57;103479.47;;;2.62;100.00
9257;BME280;4665;51.368;6.782;2023-02-10T09:35:23;103484.75;;;2.62;100.00
9257;BME280;4665;51.368;6.782;2023-02-10T09:37:48;103488.16;;;2.66;100.00
9257;BME280;4665;51.368;6.782;2023-02-10T09:40:26;103485.41;;;2.70;100.00
9257;BME280;4665;51.368;6.782;2023-02-10T09:43:01;103485.22;;;2.78;100.00
9257;BME280;4665;51.368;6.782;2023-02-10T09:45:34;103495.69;;;2.81;100.00
9257;BME280;4665;51.368;6.782;2023-02-10T09:48:25;103495.59;;;2.84;100.00
9257;BME280;4665;51.368;6.782;2023-02-10T09:51:11;103491.31;;;2.80;100.00
9257;BME280;4665;51.368;6.782;2023-02-10T09:53:39;103484.22;;;2.84;100.00
9257;BME280;4665;51.368;6.782;2023-02-10T09:56:11;103476.13;;;2.90;100.00
9257;BME280;4665;51.368;6.782;2023-02-10T09:58:44;103464.59;;;2.95;100.00
9257;BME280;4665;51.368;6.782;2023-02-10T10:04:05;103472.06;;;3.11;100.00
9257;BME280;4665;51.368;6.782;2023-02-10T10:06:39;103467.56;;;3.16;100.00
9257;BME280;4665;51.368;6.782;2023-02-10T10:11:48;103470.84;;;3.24;100.00
9257;BME280;4665;51.368;6.782;2023-02-10T10:14:21;103461.88;;;3.31;100.00
9257;BME280;4665;51.368;6.782;2023-02-10T10:17:10;103472.94;;;3.44;100.00
9257;BME280;4665;51.368;6.782;2023-02-10T10:31:41;103487.41;;;3.92;100.00
9257;BME280;4665;51.368;6.782;2023-02-10T10:36:36;103483.81;;;3.94;100.00
9257;BME280;4665;51.368;6.782;2023-02-10T10:39:13;103488.88;;;4.02;100.00
9257;BME280;4665;51.368;6.782;2023-02-10T10:41:42;103485.94;;;4.11;100.00
9257;BME280;4665;51.368;6.782;2023-02-10T10:44:12;103476.00;;;4.19;100.00
9257;BME280;4665;51.368;6.782;2023-02-10T10:47:13;103477.47;;;4.30;100.00
9257;BME280;4665;51.368;6.782;2023-02-10T10:49:40;103478.84;;;4.41;100.00
9257;BME280;4665;51.368;6.782;2023-02-10T10:52:29;103478.56;;;4.51;100.00
9257;BME280;4665;51.368;6.782;2023-02-10T10:54:57;103477.31;;;4.62;100.00
9257;BME280;4665;51.368;6.782;2023-02-10T10:57:25;103476.88;;;4.75;100.00
9257;BME280;4665;51.368;6.782;2023-02-10T10:59:55;103480.06;;;4.84;100.00
9257;BME280;4665;51.368;6.782;2023-02-10T11:02:23;103466.50;;;4.95;100.00
9257;BME280;4665;51.368;6.782;2023-02-10T11:05:19;103456.44;;;5.06;100.00
9257;BME280;4665;51.368;6.782;2023-02-10T11:07:50;103459.56;;;5.18;100.00
9257;BME280;4665;51.368;6.782;2023-02-10T11:10:28;103460.84;;;5.31;100.00
9257;BME280;4665;51.368;6.782;2023-02-10T11:12:57;103450.34;;;5.30;100.00
9257;BME280;4665;51.368;6.782;2023-02-10T11:17:59;103447.13;;;5.45;100.00
9257;BME280;4665;51.368;6.782;2023-02-10T11:20:30;103452.84;;;5.58;100.00
9257;BME280;4665;51.368;6.782;2023-02-10T11:27:55;103435.22;;;5.57;100.00
9257;BME280;4665;51.368;6.782;2023-02-10T11:30:38;103434.19;;;5.61;100.00
9257;BME280;4665;51.368;6.782;2023-02-10T11:33:06;103431.25;;;5.68;100.00
9257;BME280;4665;51.368;6.782;2023-02-10T11:35:48;103428.44;;;5.73;100.00
9257;BME280;4665;51.368;6.782;2023-02-10T11:38:25;103422.03;;;5.80;100.00
9257;BME280;4665;51.368;6.782;2023-02-10T11:43:19;103412.00;;;5.65;100.00
9257;BME280;4665;51.368;6.782;2023-02-10T11:45:58;103413.00;;;5.62;100.00
9257;BME280;4665;51.368;6.782;2023-02-10T11:48:25;103408.69;;;5.60;100.00
9257;BME280;4665;51.368;6.782;2023-02-10T11:51:15;103405.69;;;5.69;100.00
9257;BME280;4665;51.368;6.782;2023-02-10T11:53:44;103412.16;;;5.84;100.00
9257;BME280;4665;51.368;6.782;2023-02-10T11:59:54;103393.50;;;6.10;100.00
9257;BME280;4665;51.368;6.782;2023-02-10T12:10:47;103386.72;;;6.25;100.00
9257;BME280;4665;51.368;6.782;2023-02-10T12:22:01;103357.84;;;6.62;100.00
9257;BME280;4665;51.368;6.782;2023-02-10T12:27:24;103340.00;;;6.65;100.00
9257;BME280;4665;51.368;6.782;2023-02-10T12:41:26;103340.75;;;7.08;100.00
9257;BME280;4665;51.368;6.782;2023-02-10T12:52:11;103336.09;;;7.13;100.00
9257;BME280;4665;51.368;6.782;2023-02-10T12:57:20;103315.97;;;7.09;100.00
9257;BME280;4665;51.368;6.782;2023-02-10T13:02:41;103324.72;;;7.11;100.00
9257;BME280;4665;51.368;6.782;2023-02-10T13:05:27;103320.41;;;7.09;100.00
9257;BME280;4665;51.368;6.782;2023-02-10T13:07:59;103323.84;;;7.11;100.00
9257;BME280;4665;51.368;6.782;2023-02-10T13:10:40;103328.09;;;7.15;100.00
9257;BME280;4665;51.368;6.782;2023-02-10T13:13:14;103326.16;;;7.19;100.00
9257;BME280;4665;51.368;6.782;2023-02-10T13:15:48;103323.00;;;7.10;100.00
9257;BME280;4665;51.368;6.782;2023-02-10T13:18:20;103321.13;;;7.12;100.00
9257;BME280;4665;51.368;6.782;2023-02-10T13:23:56;103316.47;;;7.18;100.00
9257;BME280;4665;51.368;6.782;2023-02-10T13:26:40;103313.69;;;7.21;100.00
9257;BME280;4665;51.368;6.782;2023-02-10T13:34:56;103302.56;;;7.12;100.00
9257;BME280;4665;51.368;6.782;2023-02-10T13:37:31;103297.63;;;7.24;100.00
9257;BME280;4665;51.368;6.782;2023-02-10T13:40:03;103291.25;;;7.28;100.00
9257;BME280;4665;51.368;6.782;2023-02-10T13:42:34;103298.13;;;7.32;100.00
9257;BME280;4665;51.368;6.782;2023-02-10T13:45:11;103285.34;;;7.40;100.00
9257;BME280;4665;51.368;6.782;2023-02-10T13:47:47;103282.81;;;7.38;100.00
9257;BME280;4665;51.368;6.782;2023-02-10T13:53:03;103282.00;;;7.36;100.00
9257;BME280;4665;51.368;6.782;2023-02-10T14:00:29;103280.84;;;7.23;100.00
9257;BME280;4665;51.368;6.782;2023-02-10T14:03:26;103274.69;;;7.23;100.00
9257;BME280;4665;51.368;6.782;2023-02-10T14:06:10;103271.19;;;7.22;100.00
9257;BME280;4665;51.368;6.782;2023-02-10T14:08:38;103270.09;;;7.26;100.00
9257;BME280;4665;51.368;6.782;2023-02-10T14:13:39;103268.00;;;7.33;100.00
9257;BME280;4665;51.368;6.782;2023-02-10T14:16:26;103275.91;;;7.34;100.00
9257;BME280;4665;51.368;6.782;2023-02-10T14:19:02;103271.19;;;7.41;100.00
9257;BME280;4665;51.368;6.782;2023-02-10T14:21:41;103276.19;;;7.47;100.00
9257;BME280;4665;51.368;6.782;2023-02-10T14:24:20;103269.31;;;7.43;100.00
9257;BME280;4665;51.368;6.782;2023-02-10T14:26:49;103272.03;;;7.42;100.00
9257;BME280;4665;51.368;6.782;2023-02-10T14:29:17;103258.19;;;7.35;100.00
9257;BME280;4665;51.368;6.782;2023-02-10T14:32:04;103261.81;;;7.34;100.00
9257;BME280;4665;51.368;6.782;2023-02-10T14:34:35;103262.88;;;7.30;100.00
9257;BME280;4665;51.368;6.782;2023-02-10T14:37:14;103262.81;;;7.31;100.00
9257;BME280;4665;51.368;6.782;2023-02-10T14:39:48;103261.66;;;7.37;100.00
9257;BME280;4665;51.368;6.782;2023-02-10T14:42:14;103254.19;;;7.45;100.00
9257;BME280;4665;51.368;6.782;2023-02-10T14:44:50;103257.75;;;7.44;100.00
9257;BME280;4665;51.368;6.782;2023-02-10T14:47:22;103257.84;;;7.43;100.00
9257;BME280;4665;51.368;6.782;2023-02-10T14:49:52;103267.69;;;7.41;100.00
9257;BME280;4665;51.368;6.782;2023-02-10T14:52:23;103258.13;;;7.36;100.00
9257;BME280;4665;51.368;6.782;2023-02-10T14:54:50;103263.50;;;7.35;100.00
9257;BME280;4665;51.368;6.782;2023-02-10T14:57:18;103261.06;;;7.30;100.00
9257;BME280;4665;51.368;6.782;2023-02-10T14:59:52;103251.47;;;7.28;100.00
9257;BME280;4665;51.368;6.782;2023-02-10T15:02:20;103252.19;;;7.31;100.00
9257;BME280;4665;51.368;6.782;2023-02-10T15:04:49;103257.84;;;7.24;100.00
9257;BME280;4665;51.368;6.782;2023-02-10T15:07:29;103262.44;;;7.20;100.00
9257;BME280;4665;51.368;6.782;2023-02-10T15:10:01;103259.81;;;7.20;100.00
9257;BME280;4665;51.368;6.782;2023-02-10T15:12:29;103258.16;;;7.18;100.00
9257;BME280;4665;51.368;6.782;2023-02-10T15:15:03;103253.91;;;7.13;100.00
9257;BME280;4665;51.368;6.782;2023-02-10T15:17:37;103246.88;;;7.12;100.00
9257;BME280;4665;51.368;6.782;2023-02-10T15:22:48;103248.56;;;7.15;100.00
9257;BME280;4665;51.368;6.782;2023-02-10T15:30:56;103261.09;;;7.11;100.00
9257;BME280;4665;51.368;6.782;2023-02-10T15:33:28;103263.59;;;7.14;100.00
9257;BME280;4665;51.368;6.782;2023-02-10T15:36:16;103263.09;;;7.06;100.00